sensor_id;sensor_type;location;lat;lon;timestamp;P1;durP1;ratioP1;P2;durP2;ratioP2
23539;SDS011;11947;50.810;4.394;2023-04-24T00:02:14;32.55;;;13.95;;
23539;SDS011;11947;50.810;4.394;2023-04-24T00:04:41;34.33;;;14.30;;
23539;SDS011;11947;50.810;4.394;2023-04-24T00:07:09;30.35;;;14.43;;
23539;SDS011;11947;50.810;4.394;2023-04-24T00:09:39;33.05;;;13.95;;
23539;SDS011;11947;50.810;4.394;2023-04-24T00:12:04;32.08;;;14.60;;
23539;SDS011;11947;50.810;4.394;2023-04-24T00:14:30;32.45;;;14.05;;
23539;SDS011;11947;50.810;4.394;2023-04-24T00:16:56;40.08;;;13.65;;
23539;SDS011;11947;50.810;4.394;2023-04-24T00:19:22;30.45;;;13.85;;
23539;SDS011;11947;50.810;4.394;2023-04-24T00:21:48;32.10;;;13.25;;
23539;SDS011;11947;50.810;4.394;2023-04-24T00:24:16;31.48;;;13.82;;
23539;SDS011;11947;50.810;4.394;2023-04-24T00:26:43;32.30;;;14.35;;
23539;SDS011;11947;50.810;4.394;2023-04-24T00:29:09;30.60;;;14.35;;
23539;SDS011;11947;50.810;4.394;2023-04-24T00:31:35;38.10;;;13.80;;
23539;SDS011;11947;50.810;4.394;2023-04-24T00:34:01;33.65;;;14.05;;
23539;SDS011;11947;50.810;4.394;2023-04-24T00:36:27;29.60;;;14.18;;
23539;SDS011;11947;50.810;4.394;2023-04-24T00:38:53;34.50;;;14.45;;
23539;SDS011;11947;50.810;4.394;2023-04-24T00:41:19;33.33;;;15.15;;
23539;SDS011;11947;50.810;4.394;2023-04-24T00:43:46;33.42;;;14.95;;
23539;SDS011;11947;50.810;4.394;2023-04-24T00:46:12;33.55;;;14.52;;
23539;SDS011;11947;50.810;4.394;2023-04-24T00:48:38;30.60;;;14.07;;
23539;SDS011;11947;50.810;4.394;2023-04-24T00:51:05;31.95;;;14.40;;
23539;SDS011;11947;50.810;4.394;2023-04-24T00:53:31;32.65;;;15.27;;
23539;SDS011;11947;50.810;4.394;2023-04-24T00:55:57;32.88;;;13.88;;
23539;SDS011;11947;50.810;4.394;2023-04-24T00:58:23;33.40;;;15.07;;
23539;SDS011;11947;50.810;4.394;2023-04-24T01:00:50;30.48;;;14.40;;
23539;SDS011;11947;50.810;4.394;2023-04-24T01:03:19;37.53;;;14.70;;
23539;SDS011;11947;50.810;4.394;2023-04-24T01:05:46;30.35;;;14.02;;
23539;SDS011;11947;50.810;4.394;2023-04-24T01:08:13;33.92;;;14.48;;
23539;SDS011;11947;50.810;4.394;2023-04-24T01:10:40;32.03;;;14.65;;
23539;SDS011;11947;50.810;4.394;2023-04-24T01:13:07;33.08;;;13.43;;
23539;SDS011;11947;50.810;4.394;2023-04-24T01:15:34;30.40;;;14.02;;
23539;SDS011;11947;50.810;4.394;2023-04-24T01:17:59;35.25;;;14.55;;
23539;SDS011;11947;50.810;4.394;2023-04-24T01:20:25;30.83;;;14.05;;
23539;SDS011;11947;50.810;4.394;2023-04-24T01:22:51;29.13;;;14.40;;
23539;SDS011;11947;50.810;4.394;2023-04-24T01:25:19;29.52;;;13.73;;
23539;SDS011;11947;50.810;4.394;2023-04-24T01:27:45;33.40;;;13.98;;
23539;SDS011;11947;50.810;4.394;2023-04-24T01:30:11;28.30;;;12.23;;
23539;SDS011;11947;50.810;4.394;2023-04-24T01:32:37;28.50;;;13.57;;
23539;SDS011;11947;50.810;4.394;2023-04-24T01:35:05;32.15;;;13.38;;
23539;SDS011;11947;50.810;4.394;2023-04-24T01:37:31;30.10;;;12.95;;
23539;SDS011;11947;50.810;4.394;2023-04-24T01:39:58;32.80;;;14.13;;
23539;SDS011;11947;50.810;4.394;2023-04-24T01:42:24;26.10;;;13.00;;
23539;SDS011;11947;50.810;4.394;2023-04-24T01:44:50;31.50;;;13.80;;
23539;SDS011;11947;50.810;4.394;2023-04-24T01:47:16;30.48;;;13.13;;
23539;SDS011;11947;50.810;4.394;2023-04-24T01:49:42;32.53;;;14.35;;
23539;SDS011;11947;50.810;4.394;2023-04-24T01:52:07;27.98;;;14.10;;
23539;SDS011;11947;50.810;4.394;2023-04-24T01:54:33;31.95;;;14.90;;
23539;SDS011;11947;50.810;4.394;2023-04-24T01:56:59;34.25;;;15.60;;
23539;SDS011;11947;50.810;4.394;2023-04-24T01:59:26;32.42;;;15.70;;
23539;SDS011;11947;50.810;4.394;2023-04-24T02:01:53;34.80;;;15.65;;
23539;SDS011;11947;50.810;4.394;2023-04-24T02:04:19;37.53;;;16.30;;
23539;SDS011;11947;50.810;4.394;2023-04-24T02:06:44;40.28;;;17.08;;
23539;SDS011;11947;50.810;4.394;2023-04-24T02:09:10;36.70;;;15.98;;
23539;SDS011;11947;50.810;4.394;2023-04-24T02:11:36;35.83;;;16.13;;
23539;SDS011;11947;50.810;4.394;2023-04-24T02:14:02;39.33;;;17.23;;
23539;SDS011;11947;50.810;4.394;2023-04-24T02:16:28;34.60;;;16.88;;
23539;SDS011;11947;50.810;4.394;2023-04-24T02:18:57;42.05;;;17.08;;
23539;SDS011;11947;50.810;4.394;2023-04-24T02:21:22;41.70;;;18.63;;
23539;SDS011;11947;50.810;4.394;2023-04-24T02:23:48;38.13;;;18.00;;
23539;SDS011;11947;50.810;4.394;2023-04-24T02:26:14;36.00;;;17.48;;
23539;SDS011;11947;50.810;4.394;2023-04-24T02:28:40;35.00;;;17.52;;
23539;SDS011;11947;50.810;4.394;2023-04-24T02:31:05;41.35;;;18.02;;
23539;SDS011;11947;50.810;4.394;2023-04-24T02:33:31;36.13;;;17.02;;
23539;SDS011;11947;50.810;4.394;2023-04-24T02:35:57;43.13;;;17.25;;
23539;SDS011;11947;50.810;4.394;2023-04-24T02:38:22;38.95;;;16.98;;
23539;SDS011;11947;50.810;4.394;2023-04-24T02:40:48;36.33;;;17.70;;
23539;SDS011;11947;50.810;4.394;2023-04-24T02:43:14;40.17;;;16.92;;
23539;SDS011;11947;50.810;4.394;2023-04-24T02:45:39;35.67;;;16.63;;
23539;SDS011;11947;50.810;4.394;2023-04-24T02:48:05;35.92;;;16.20;;
23539;SDS011;11947;50.810;4.394;2023-04-24T02:50:30;44.47;;;17.88;;
23539;SDS011;11947;50.810;4.394;2023-04-24T02:52:57;35.92;;;16.45;;
23539;SDS011;11947;50.810;4.394;2023-04-24T02:55:22;33.78;;;15.15;;
23539;SDS011;11947;50.810;4.394;2023-04-24T02:57:48;32.05;;;15.00;;
23539;SDS011;11947;50.810;4.394;2023-04-24T03:00:14;34.60;;;15.05;;
23539;SDS011;11947;50.810;4.394;2023-04-24T03:02:39;31.08;;;14.13;;
23539;SDS011;11947;50.810;4.394;2023-04-24T03:05:05;34.53;;;13.73;;
23539;SDS011;11947;50.810;4.394;2023-04-24T03:07:32;36.60;;;14.63;;
23539;SDS011;11947;50.810;4.394;2023-04-24T03:09:58;28.27;;;13.65;;
23539;SDS011;11947;50.810;4.394;2023-04-24T03:12:24;27.17;;;13.15;;
23539;SDS011;11947;50.810;4.394;2023-04-24T03:14:50;25.05;;;11.93;;
23539;SDS011;11947;50.810;4.394;2023-04-24T03:17:15;29.77;;;12.45;;
23539;SDS011;11947;50.810;4.394;2023-04-24T03:19:41;25.90;;;11.80;;
23539;SDS011;11947;50.810;4.394;2023-04-24T03:22:06;25.65;;;12.15;;
23539;SDS011;11947;50.810;4.394;2023-04-24T03:24:34;25.02;;;11.40;;
23539;SDS011;11947;50.810;4.394;2023-04-24T03:26:59;32.92;;;12.05;;
23539;SDS011;11947;50.810;4.394;2023-04-24T03:29:25;27.50;;;11.40;;
23539;SDS011;11947;50.810;4.394;2023-04-24T03:31:51;42.85;;;13.30;;
23539;SDS011;11947;50.810;4.394;2023-04-24T03:34:16;26.95;;;12.82;;
23539;SDS011;11947;50.810;4.394;2023-04-24T03:36:42;31.63;;;12.60;;
23539;SDS011;11947;50.810;4.394;2023-04-24T03:39:07;27.48;;;13.20;;
23539;SDS011;11947;50.810;4.394;2023-04-24T03:41:33;31.98;;;13.40;;
23539;SDS011;11947;50.810;4.394;2023-04-24T03:43:59;28.88;;;12.70;;
23539;SDS011;11947;50.810;4.394;2023-04-24T03:46:25;27.95;;;12.82;;
23539;SDS011;11947;50.810;4.394;2023-04-24T03:48:50;26.55;;;13.25;;
23539;SDS011;11947;50.810;4.394;2023-04-24T03:51:16;29.75;;;12.18;;
23539;SDS011;11947;50.810;4.394;2023-04-24T03:53:42;24.73;;;11.60;;
23539;SDS011;11947;50.810;4.394;2023-04-24T03:56:07;22.83;;;11.23;;
23539;SDS011;11947;50.810;4.394;2023-04-24T03:58:33;25.45;;;11.73;;
23539;SDS011;11947;50.810;4.394;2023-04-24T04:00:59;22.15;;;10.63;;
23539;SDS011;11947;50.810;4.394;2023-04-24T04:03:25;20.38;;;10.32;;
23539;SDS011;11947;50.810;4.394;2023-04-24T04:05:50;19.45;;;9.40;;
23539;SDS011;11947;50.810;4.394;2023-04-24T04:08:16;18.15;;;8.93;;
23539;SDS011;11947;50.810;4.394;2023-04-24T04:10:42;18.38;;;8.93;;
23539;SDS011;11947;50.810;4.394;2023-04-24T04:13:08;19.92;;;9.77;;
23539;SDS011;11947;50.810;4.394;2023-04-24T04:15:33;15.30;;;8.75;;
23539;SDS011;11947;50.810;4.394;2023-04-24T04:17:59;16.45;;;8.80;;
23539;SDS011;11947;50.810;4.394;2023-04-24T04:20:24;19.33;;;9.15;;
23539;SDS011;11947;50.810;4.394;2023-04-24T04:22:50;23.13;;;9.18;;
23539;SDS011;11947;50.810;4.394;2023-04-24T04:25:16;17.67;;;8.98;;
23539;SDS011;11947;50.810;4.394;2023-04-24T04:27:44;17.52;;;8.77;;
23539;SDS011;11947;50.810;4.394;2023-04-24T04:30:10;15.88;;;8.95;;
23539;SDS011;11947;50.810;4.394;2023-04-24T04:32:37;16.23;;;8.45;;
23539;SDS011;11947;50.810;4.394;2023-04-24T04:35:03;19.27;;;9.23;;
23539;SDS011;11947;50.810;4.394;2023-04-24T04:37:30;17.15;;;8.40;;
23539;SDS011;11947;50.810;4.394;2023-04-24T04:39:56;16.70;;;8.65;;
23539;SDS011;11947;50.810;4.394;2023-04-24T04:42:23;18.27;;;8.75;;
23539;SDS011;11947;50.810;4.394;2023-04-24T04:44:49;18.08;;;8.18;;
23539;SDS011;11947;50.810;4.394;2023-04-24T04:47:15;22.38;;;8.57;;
23539;SDS011;11947;50.810;4.394;2023-04-24T04:49:42;17.20;;;8.63;;
23539;SDS011;11947;50.810;4.394;2023-04-24T04:52:08;18.92;;;9.05;;
23539;SDS011;11947;50.810;4.394;2023-04-24T04:54:34;21.33;;;9.55;;
23539;SDS011;11947;50.810;4.394;2023-04-24T04:57:00;29.13;;;11.38;;
23539;SDS011;11947;50.810;4.394;2023-04-24T04:59:26;25.80;;;11.77;;
23539;SDS011;11947;50.810;4.394;2023-04-24T05:01:52;26.77;;;12.52;;
23539;SDS011;11947;50.810;4.394;2023-04-24T05:04:18;30.95;;;12.82;;
23539;SDS011;11947;50.810;4.394;2023-04-24T05:06:43;29.27;;;12.55;;
23539;SDS011;11947;50.810;4.394;2023-04-24T05:09:09;27.65;;;12.20;;
23539;SDS011;11947;50.810;4.394;2023-04-24T05:11:35;32.28;;;13.10;;
23539;SDS011;11947;50.810;4.394;2023-04-24T05:14:01;29.27;;;13.35;;
23539;SDS011;11947;50.810;4.394;2023-04-24T05:16:26;36.60;;;13.20;;
23539;SDS011;11947;50.810;4.394;2023-04-24T05:18:52;34.17;;;13.55;;
23539;SDS011;11947;50.810;4.394;2023-04-24T05:21:18;40.08;;;14.73;;
23539;SDS011;11947;50.810;4.394;2023-04-24T05:23:43;39.28;;;14.40;;
23539;SDS011;11947;50.810;4.394;2023-04-24T05:26:09;32.05;;;13.80;;
23539;SDS011;11947;50.810;4.394;2023-04-24T05:28:34;33.50;;;15.30;;
23539;SDS011;11947;50.810;4.394;2023-04-24T05:31:01;39.95;;;16.02;;
23539;SDS011;11947;50.810;4.394;2023-04-24T05:33:28;38.97;;;16.23;;
23539;SDS011;11947;50.810;4.394;2023-04-24T05:35:54;34.72;;;15.30;;
23539;SDS011;11947;50.810;4.394;2023-04-24T05:38:19;35.30;;;14.20;;
23539;SDS011;11947;50.810;4.394;2023-04-24T05:40:45;38.20;;;15.50;;
23539;SDS011;11947;50.810;4.394;2023-04-24T05:43:11;37.47;;;16.25;;
23539;SDS011;11947;50.810;4.394;2023-04-24T05:45:37;39.33;;;16.52;;
23539;SDS011;11947;50.810;4.394;2023-04-24T05:48:03;37.00;;;14.68;;
23539;SDS011;11947;50.810;4.394;2023-04-24T05:50:29;40.20;;;15.15;;
23539;SDS011;11947;50.810;4.394;2023-04-24T05:52:55;33.83;;;14.50;;
23539;SDS011;11947;50.810;4.394;2023-04-24T05:55:23;35.10;;;14.88;;
23539;SDS011;11947;50.810;4.394;2023-04-24T05:57:49;38.45;;;14.82;;
23539;SDS011;11947;50.810;4.394;2023-04-24T06:00:15;37.00;;;14.75;;
23539;SDS011;11947;50.810;4.394;2023-04-24T06:02:41;35.50;;;15.38;;
23539;SDS011;11947;50.810;4.394;2023-04-24T06:05:07;35.67;;;15.05;;
23539;SDS011;11947;50.810;4.394;2023-04-24T06:07:33;44.00;;;15.38;;
23539;SDS011;11947;50.810;4.394;2023-04-24T06:09:59;33.67;;;15.23;;
23539;SDS011;11947;50.810;4.394;2023-04-24T06:12:25;36.50;;;14.82;;
23539;SDS011;11947;50.810;4.394;2023-04-24T06:14:51;34.63;;;15.43;;
23539;SDS011;11947;50.810;4.394;2023-04-24T06:17:16;38.30;;;15.35;;
23539;SDS011;11947;50.810;4.394;2023-04-24T06:19:43;37.55;;;15.13;;
23539;SDS011;11947;50.810;4.394;2023-04-24T06:22:09;37.67;;;15.35;;
23539;SDS011;11947;50.810;4.394;2023-04-24T06:24:34;38.72;;;15.30;;
23539;SDS011;11947;50.810;4.394;2023-04-24T06:27:00;38.55;;;16.10;;
23539;SDS011;11947;50.810;4.394;2023-04-24T06:29:26;44.13;;;16.58;;
23539;SDS011;11947;50.810;4.394;2023-04-24T06:31:52;37.67;;;15.05;;
23539;SDS011;11947;50.810;4.394;2023-04-24T06:34:18;33.75;;;16.02;;
23539;SDS011;11947;50.810;4.394;2023-04-24T06:36:43;37.78;;;16.75;;
23539;SDS011;11947;50.810;4.394;2023-04-24T06:39:09;42.33;;;17.05;;
23539;SDS011;11947;50.810;4.394;2023-04-24T06:41:35;45.58;;;17.08;;
23539;SDS011;11947;50.810;4.394;2023-04-24T06:44:01;45.70;;;17.75;;
23539;SDS011;11947;50.810;4.394;2023-04-24T06:46:26;39.35;;;17.33;;
23539;SDS011;11947;50.810;4.394;2023-04-24T06:48:53;45.78;;;19.58;;
23539;SDS011;11947;50.810;4.394;2023-04-24T06:51:22;46.38;;;18.15;;
23539;SDS011;11947;50.810;4.394;2023-04-24T06:53:49;39.42;;;18.08;;
23539;SDS011;11947;50.810;4.394;2023-04-24T06:56:15;45.63;;;18.02;;
23539;SDS011;11947;50.810;4.394;2023-04-24T06:58:41;48.53;;;19.92;;
23539;SDS011;11947;50.810;4.394;2023-04-24T07:01:07;49.80;;;19.80;;
23539;SDS011;11947;50.810;4.394;2023-04-24T07:03:32;42.13;;;18.45;;
23539;SDS011;11947;50.810;4.394;2023-04-24T07:05:58;52.78;;;19.65;;
23539;SDS011;11947;50.810;4.394;2023-04-24T07:08:24;46.83;;;19.90;;
23539;SDS011;11947;50.810;4.394;2023-04-24T07:10:50;47.63;;;19.48;;
23539;SDS011;11947;50.810;4.394;2023-04-24T07:13:16;45.88;;;18.83;;
23539;SDS011;11947;50.810;4.394;2023-04-24T07:15:42;49.75;;;19.55;;
23539;SDS011;11947;50.810;4.394;2023-04-24T07:18:08;47.40;;;19.92;;
23539;SDS011;11947;50.810;4.394;2023-04-24T07:20:34;53.35;;;18.92;;
23539;SDS011;11947;50.810;4.394;2023-04-24T07:23:00;50.47;;;19.45;;
23539;SDS011;11947;50.810;4.394;2023-04-24T07:25:25;49.17;;;18.80;;
23539;SDS011;11947;50.810;4.394;2023-04-24T07:27:51;52.17;;;18.38;;
23539;SDS011;11947;50.810;4.394;2023-04-24T07:30:18;41.35;;;17.58;;
23539;SDS011;11947;50.810;4.394;2023-04-24T07:32:43;45.15;;;18.67;;
23539;SDS011;11947;50.810;4.394;2023-04-24T07:35:09;47.22;;;18.42;;
23539;SDS011;11947;50.810;4.394;2023-04-24T07:37:35;48.42;;;19.08;;
23539;SDS011;11947;50.810;4.394;2023-04-24T07:40:01;42.17;;;17.02;;
23539;SDS011;11947;50.810;4.394;2023-04-24T07:42:27;48.00;;;18.58;;
23539;SDS011;11947;50.810;4.394;2023-04-24T07:44:55;53.67;;;19.02;;
23539;SDS011;11947;50.810;4.394;2023-04-24T07:47:21;49.47;;;18.85;;
23539;SDS011;11947;50.810;4.394;2023-04-24T07:49:46;40.03;;;17.38;;
23539;SDS011;11947;50.810;4.394;2023-04-24T07:52:12;41.53;;;18.00;;
23539;SDS011;11947;50.810;4.394;2023-04-24T07:54:38;50.53;;;19.23;;
23539;SDS011;11947;50.810;4.394;2023-04-24T07:57:03;46.10;;;18.08;;
23539;SDS011;11947;50.810;4.394;2023-04-24T07:59:31;45.83;;;18.25;;
23539;SDS011;11947;50.810;4.394;2023-04-24T08:01:56;42.42;;;18.45;;
23539;SDS011;11947;50.810;4.394;2023-04-24T08:04:22;38.15;;;17.98;;
23539;SDS011;11947;50.810;4.394;2023-04-24T08:06:48;39.25;;;16.63;;
23539;SDS011;11947;50.810;4.394;2023-04-24T08:09:13;43.22;;;17.85;;
23539;SDS011;11947;50.810;4.394;2023-04-24T08:11:39;41.95;;;15.35;;
23539;SDS011;11947;50.810;4.394;2023-04-24T08:14:05;42.30;;;15.35;;
23539;SDS011;11947;50.810;4.394;2023-04-24T08:16:32;37.50;;;15.15;;
23539;SDS011;11947;50.810;4.394;2023-04-24T08:18:58;32.85;;;13.52;;
23539;SDS011;11947;50.810;4.394;2023-04-24T08:21:23;32.05;;;12.98;;
23539;SDS011;11947;50.810;4.394;2023-04-24T08:23:49;27.10;;;11.73;;
23539;SDS011;11947;50.810;4.394;2023-04-24T08:26:15;31.55;;;11.60;;
23539;SDS011;11947;50.810;4.394;2023-04-24T08:28:41;25.38;;;11.70;;
23539;SDS011;11947;50.810;4.394;2023-04-24T08:31:07;29.27;;;12.60;;
23539;SDS011;11947;50.810;4.394;2023-04-24T08:33:33;30.73;;;12.70;;
23539;SDS011;11947;50.810;4.394;2023-04-24T08:36:03;28.80;;;12.43;;
23539;SDS011;11947;50.810;4.394;2023-04-24T08:38:30;23.27;;;10.63;;
23539;SDS011;11947;50.810;4.394;2023-04-24T08:40:57;24.17;;;9.90;;
23539;SDS011;11947;50.810;4.394;2023-04-24T08:43:24;27.40;;;10.75;;
23539;SDS011;11947;50.810;4.394;2023-04-24T08:45:51;25.42;;;10.32;;
23539;SDS011;11947;50.810;4.394;2023-04-24T08:48:18;29.33;;;10.73;;
23539;SDS011;11947;50.810;4.394;2023-04-24T08:50:43;29.83;;;10.35;;
23539;SDS011;11947;50.810;4.394;2023-04-24T08:53:10;25.00;;;10.35;;
23539;SDS011;11947;50.810;4.394;2023-04-24T08:55:37;25.65;;;9.02;;
23539;SDS011;11947;50.810;4.394;2023-04-24T08:58:03;20.75;;;8.95;;
23539;SDS011;11947;50.810;4.394;2023-04-24T09:00:29;23.10;;;8.85;;
23539;SDS011;11947;50.810;4.394;2023-04-24T09:02:55;19.88;;;8.02;;
23539;SDS011;11947;50.810;4.394;2023-04-24T09:05:21;20.48;;;8.23;;
23539;SDS011;11947;50.810;4.394;2023-04-24T09:07:55;18.90;;;7.47;;
23539;SDS011;11947;50.810;4.394;2023-04-24T09:10:23;21.65;;;7.53;;
23539;SDS011;11947;50.810;4.394;2023-04-24T09:12:50;14.50;;;6.15;;
23539;SDS011;11947;50.810;4.394;2023-04-24T09:15:17;17.70;;;6.47;;
23539;SDS011;11947;50.810;4.394;2023-04-24T09:17:45;14.82;;;6.63;;
23539;SDS011;11947;50.810;4.394;2023-04-24T09:20:11;17.60;;;6.47;;
23539;SDS011;11947;50.810;4.394;2023-04-24T09:22:37;16.08;;;7.43;;
23539;SDS011;11947;50.810;4.394;2023-04-24T09:25:06;13.13;;;5.95;;
23539;SDS011;11947;50.810;4.394;2023-04-24T09:27:33;17.70;;;6.85;;
23539;SDS011;11947;50.810;4.394;2023-04-24T09:30:00;13.40;;;5.70;;
23539;SDS011;11947;50.810;4.394;2023-04-24T09:32:26;12.65;;;5.63;;
23539;SDS011;11947;50.810;4.394;2023-04-24T09:37:38;18.80;;;7.05;;
23539;SDS011;11947;50.810;4.394;2023-04-24T09:40:10;20.27;;;9.55;;
23539;SDS011;11947;50.810;4.394;2023-04-24T09:42:37;18.85;;;6.53;;
23539;SDS011;11947;50.810;4.394;2023-04-24T09:45:03;12.60;;;5.90;;
23539;SDS011;11947;50.810;4.394;2023-04-24T09:47:39;18.58;;;7.00;;
23539;SDS011;11947;50.810;4.394;2023-04-24T09:50:17;14.52;;;5.88;;
23539;SDS011;11947;50.810;4.394;2023-04-24T09:52:43;14.45;;;5.63;;
23539;SDS011;11947;50.810;4.394;2023-04-24T09:55:18;20.42;;;5.50;;
23539;SDS011;11947;50.810;4.394;2023-04-24T09:57:52;12.73;;;5.30;;
23539;SDS011;11947;50.810;4.394;2023-04-24T10:00:33;13.80;;;5.50;;
23539;SDS011;11947;50.810;4.394;2023-04-24T10:03:03;14.15;;;5.65;;
23539;SDS011;11947;50.810;4.394;2023-04-24T10:05:34;12.63;;;5.18;;
23539;SDS011;11947;50.810;4.394;2023-04-24T10:08:10;13.77;;;4.75;;
23539;SDS011;11947;50.810;4.394;2023-04-24T10:10:41;10.55;;;4.70;;
23539;SDS011;11947;50.810;4.394;2023-04-24T10:13:11;9.02;;;4.72;;
23539;SDS011;11947;50.810;4.394;2023-04-24T10:15:40;12.88;;;4.93;;
23539;SDS011;11947;50.810;4.394;2023-04-24T10:18:07;11.48;;;4.43;;
23539;SDS011;11947;50.810;4.394;2023-04-24T10:20:35;14.43;;;5.10;;
23539;SDS011;11947;50.810;4.394;2023-04-24T10:23:02;11.80;;;4.85;;
23539;SDS011;11947;50.810;4.394;2023-04-24T10:25:29;12.85;;;5.05;;
23539;SDS011;11947;50.810;4.394;2023-04-24T10:27:56;12.43;;;5.45;;
23539;SDS011;11947;50.810;4.394;2023-04-24T10:30:24;15.45;;;5.43;;
23539;SDS011;11947;50.810;4.394;2023-04-24T10:32:52;15.35;;;6.00;;
23539;SDS011;11947;50.810;4.394;2023-04-24T10:35:17;17.75;;;6.13;;
23539;SDS011;11947;50.810;4.394;2023-04-24T10:37:53;13.82;;;5.82;;
23539;SDS011;11947;50.810;4.394;2023-04-24T10:40:32;23.63;;;5.32;;
23539;SDS011;11947;50.810;4.394;2023-04-24T10:42:59;17.00;;;5.75;;
23539;SDS011;11947;50.810;4.394;2023-04-24T10:45:28;16.92;;;6.50;;
23539;SDS011;11947;50.810;4.394;2023-04-24T10:48:12;13.43;;;5.72;;
23539;SDS011;11947;50.810;4.394;2023-04-24T10:53:15;11.63;;;5.65;;
23539;SDS011;11947;50.810;4.394;2023-04-24T10:55:52;15.70;;;5.68;;
23539;SDS011;11947;50.810;4.394;2023-04-24T10:58:36;10.88;;;5.53;;
23539;SDS011;11947;50.810;4.394;2023-04-24T11:01:09;13.80;;;5.93;;
23539;SDS011;11947;50.810;4.394;2023-04-24T11:04:02;12.18;;;6.07;;
23539;SDS011;11947;50.810;4.394;2023-04-24T11:06:28;11.98;;;5.72;;
23539;SDS011;11947;50.810;4.394;2023-04-24T11:09:10;11.88;;;5.90;;
23539;SDS011;11947;50.810;4.394;2023-04-24T11:11:44;11.38;;;5.95;;
23539;SDS011;11947;50.810;4.394;2023-04-24T11:14:13;10.85;;;5.75;;
23539;SDS011;11947;50.810;4.394;2023-04-24T11:16:53;13.57;;;6.10;;
23539;SDS011;11947;50.810;4.394;2023-04-24T11:19:23;10.25;;;6.20;;
23539;SDS011;11947;50.810;4.394;2023-04-24T11:22:13;13.73;;;5.63;;
23539;SDS011;11947;50.810;4.394;2023-04-24T11:24:40;15.38;;;8.32;;
23539;SDS011;11947;50.810;4.394;2023-04-24T11:35:04;10.00;;;5.75;;
23539;SDS011;11947;50.810;4.394;2023-04-24T11:37:38;12.35;;;5.68;;
23539;SDS011;11947;50.810;4.394;2023-04-24T11:40:06;10.40;;;6.15;;
23539;SDS011;11947;50.810;4.394;2023-04-24T11:42:33;8.98;;;5.63;;
23539;SDS011;11947;50.810;4.394;2023-04-24T11:45:10;12.63;;;6.28;;
23539;SDS011;11947;50.810;4.394;2023-04-24T11:47:38;13.63;;;6.40;;
23539;SDS011;11947;50.810;4.394;2023-04-24T11:50:05;11.25;;;6.80;;
23539;SDS011;11947;50.810;4.394;2023-04-24T11:52:33;14.80;;;7.43;;
23539;SDS011;11947;50.810;4.394;2023-04-24T11:55:02;13.00;;;6.57;;
23539;SDS011;11947;50.810;4.394;2023-04-24T11:57:28;11.63;;;6.28;;
23539;SDS011;11947;50.810;4.394;2023-04-24T11:59:59;12.52;;;6.60;;
23539;SDS011;11947;50.810;4.394;2023-04-24T12:02:26;15.75;;;7.40;;
23539;SDS011;11947;50.810;4.394;2023-04-24T12:04:55;12.30;;;6.50;;
23539;SDS011;11947;50.810;4.394;2023-04-24T12:07:22;11.57;;;6.32;;
23539;SDS011;11947;50.810;4.394;2023-04-24T12:09:58;15.55;;;7.45;;
23539;SDS011;11947;50.810;4.394;2023-04-24T12:12:28;14.02;;;6.82;;
23539;SDS011;11947;50.810;4.394;2023-04-24T12:14:57;9.48;;;6.15;;
23539;SDS011;11947;50.810;4.394;2023-04-24T12:17:24;11.93;;;6.57;;
23539;SDS011;11947;50.810;4.394;2023-04-24T12:19:50;10.45;;;6.15;;
23539;SDS011;11947;50.810;4.394;2023-04-24T12:22:16;10.50;;;6.07;;
23539;SDS011;11947;50.810;4.394;2023-04-24T12:24:58;10.77;;;5.97;;
23539;SDS011;11947;50.810;4.394;2023-04-24T12:27:30;9.50;;;5.85;;
23539;SDS011;11947;50.810;4.394;2023-04-24T12:29:57;10.63;;;5.95;;
23539;SDS011;11947;50.810;4.394;2023-04-24T12:32:24;13.63;;;6.97;;
23539;SDS011;11947;50.810;4.394;2023-04-24T12:34:50;10.38;;;6.78;;
23539;SDS011;11947;50.810;4.394;2023-04-24T12:37:17;9.80;;;6.90;;
23539;SDS011;11947;50.810;4.394;2023-04-24T12:42:29;10.85;;;6.20;;
23539;SDS011;11947;50.810;4.394;2023-04-24T12:44:56;9.70;;;5.90;;
23539;SDS011;11947;50.810;4.394;2023-04-24T12:47:24;10.55;;;5.90;;
23539;SDS011;11947;50.810;4.394;2023-04-24T12:49:50;9.20;;;6.13;;
23539;SDS011;11947;50.810;4.394;2023-04-24T12:52:17;8.52;;;5.90;;
23539;SDS011;11947;50.810;4.394;2023-04-24T12:54:49;9.45;;;5.82;;
23539;SDS011;11947;50.810;4.394;2023-04-24T12:57:16;8.05;;;5.47;;
23539;SDS011;11947;50.810;4.394;2023-04-24T12:59:42;9.40;;;5.43;;
23539;SDS011;11947;50.810;4.394;2023-04-24T13:02:08;9.38;;;5.32;;
23539;SDS011;11947;50.810;4.394;2023-04-24T13:04:35;8.93;;;5.80;;
23539;SDS011;11947;50.810;4.394;2023-04-24T13:07:01;9.25;;;5.80;;
23539;SDS011;11947;50.810;4.394;2023-04-24T13:09:27;8.80;;;5.03;;
23539;SDS011;11947;50.810;4.394;2023-04-24T13:11:52;10.20;;;5.28;;
23539;SDS011;11947;50.810;4.394;2023-04-24T13:14:19;8.43;;;4.82;;
23539;SDS011;11947;50.810;4.394;2023-04-24T13:16:45;11.52;;;4.72;;
23539;SDS011;11947;50.810;4.394;2023-04-24T13:19:10;7.15;;;4.72;;
23539;SDS011;11947;50.810;4.394;2023-04-24T13:21:36;8.20;;;5.07;;
23539;SDS011;11947;50.810;4.394;2023-04-24T13:24:02;9.68;;;4.82;;
23539;SDS011;11947;50.810;4.394;2023-04-24T13:26:29;8.27;;;4.35;;
23539;SDS011;11947;50.810;4.394;2023-04-24T13:28:55;9.48;;;4.60;;
23539;SDS011;11947;50.810;4.394;2023-04-24T13:31:21;6.97;;;4.10;;
23539;SDS011;11947;50.810;4.394;2023-04-24T13:33:47;8.18;;;3.85;;
23539;SDS011;11947;50.810;4.394;2023-04-24T13:36:13;10.00;;;5.32;;
23539;SDS011;11947;50.810;4.394;2023-04-24T13:38:38;9.23;;;4.13;;
23539;SDS011;11947;50.810;4.394;2023-04-24T13:41:04;5.50;;;3.78;;
23539;SDS011;11947;50.810;4.394;2023-04-24T13:43:30;6.07;;;3.80;;
23539;SDS011;11947;50.810;4.394;2023-04-24T13:45:56;12.45;;;5.18;;
23539;SDS011;11947;50.810;4.394;2023-04-24T13:48:21;6.65;;;4.20;;
23539;SDS011;11947;50.810;4.394;2023-04-24T13:50:47;9.18;;;3.88;;
23539;SDS011;11947;50.810;4.394;2023-04-24T13:53:14;8.65;;;4.45;;
23539;SDS011;11947;50.810;4.394;2023-04-24T13:55:40;6.55;;;3.72;;
23539;SDS011;11947;50.810;4.394;2023-04-24T13:58:06;8.55;;;3.47;;
23539;SDS011;11947;50.810;4.394;2023-04-24T14:00:32;7.53;;;3.92;;
23539;SDS011;11947;50.810;4.394;2023-04-24T14:02:58;8.30;;;3.78;;
23539;SDS011;11947;50.810;4.394;2023-04-24T14:05:24;11.55;;;3.35;;
23539;SDS011;11947;50.810;4.394;2023-04-24T14:07:50;7.50;;;3.70;;
23539;SDS011;11947;50.810;4.394;2023-04-24T14:10:16;8.38;;;3.53;;
23539;SDS011;11947;50.810;4.394;2023-04-24T14:12:41;5.25;;;3.17;;
23539;SDS011;11947;50.810;4.394;2023-04-24T14:15:07;5.47;;;3.28;;
23539;SDS011;11947;50.810;4.394;2023-04-24T14:17:33;7.75;;;3.10;;
23539;SDS011;11947;50.810;4.394;2023-04-24T14:19:59;12.93;;;3.92;;
23539;SDS011;11947;50.810;4.394;2023-04-24T14:22:25;7.85;;;3.28;;
23539;SDS011;11947;50.810;4.394;2023-04-24T14:24:51;8.52;;;2.97;;
23539;SDS011;11947;50.810;4.394;2023-04-24T14:27:17;7.18;;;2.47;;
23539;SDS011;11947;50.810;4.394;2023-04-24T14:29:42;9.50;;;2.60;;
23539;SDS011;11947;50.810;4.394;2023-04-24T14:32:10;8.60;;;2.83;;
23539;SDS011;11947;50.810;4.394;2023-04-24T14:34:35;6.82;;;2.85;;
23539;SDS011;11947;50.810;4.394;2023-04-24T14:37:01;7.88;;;2.88;;
23539;SDS011;11947;50.810;4.394;2023-04-24T14:39:27;6.25;;;2.95;;
23539;SDS011;11947;50.810;4.394;2023-04-24T14:41:53;9.70;;;2.75;;
23539;SDS011;11947;50.810;4.394;2023-04-24T14:44:20;4.03;;;2.40;;